Time;durP1;ratioP1;P1;durP2;ratioP2;P2;SDS_P1;SDS_P2;PMS_P1;PMS_P2;Temp;Humidity;BMP_temperature;BMP_pressure;BME280_temperature;BME280_humidity;BME280_pressure;Samples;Min_cycle;Max_cycle;Signal;HPM_P1;HPM_P2
2023/05/01 00:00:32;;;;;;;5.90;4.43;;;8.90;99.90;;;;;;4992832;28;20117;-81
2023/05/01 00:02:58;;;;;;;6.83;4.67;;;8.90;99.90;;;;;;4990990;28;20171;-82
2023/05/01 00:05:23;;;;;;;4.70;4.10;;;8.80;99.90;;;;;;4992667;28;20053;-82
2023/05/01 00:07:49;;;;;;;8.63;4.47;;;8.80;99.90;;;;;;4991060;28;20101;-81
2023/05/01 00:10:15;;;;;;;9.23;4.77;;;8.80;99.90;;;;;;4991724;28;20112;-82
2023/05/01 00:12:40;;;;;;;5.57;4.40;;;8.80;99.90;;;;;;4991350;28;20091;-81
2023/05/01 00:15:06;;;;;;;5.33;4.33;;;8.80;99.90;;;;;;4992497;28;20042;-81
2023/05/01 00:17:32;;;;;;;5.07;4.07;;;8.80;99.90;;;;;;4990858;28;20449;-82
2023/05/01 00:19:58;;;;;;;6.07;4.93;;;8.80;99.90;;;;;;4988703;28;20026;-82
2023/05/01 00:22:23;;;;;;;7.73;5.07;;;8.70;99.90;;;;;;4991988;28;20040;-81
2023/05/01 00:24:49;;;;;;;6.50;4.23;;;8.70;99.90;;;;;;4995394;28;20022;-81
2023/05/01 00:27:15;;;;;;;7.03;4.90;;;8.70;99.90;;;;;;4993699;28;20053;-81
2023/05/01 00:29:41;;;;;;;5.83;4.33;;;8.70;99.90;;;;;;4993268;28;20026;-81
2023/05/01 00:32:06;;;;;;;6.50;4.80;;;8.70;99.90;;;;;;4996245;28;20038;-82
2023/05/01 00:34:32;;;;;;;6.60;4.57;;;8.60;99.90;;;;;;4998453;28;20049;-82
2023/05/01 00:36:57;;;;;;;7.07;4.90;;;8.60;99.90;;;;;;4992607;28;20033;-82
2023/05/01 00:39:23;;;;;;;6.60;4.80;;;8.60;99.90;;;;;;4992769;28;20501;-82
2023/05/01 00:41:49;;;;;;;6.50;4.70;;;8.50;99.90;;;;;;4991727;28;20169;-81
2023/05/01 00:44:15;;;;;;;5.67;4.30;;;8.50;99.90;;;;;;4993031;28;20044;-82
2023/05/01 00:46:42;;;;;;;8.37;4.90;;;8.50;99.90;;;;;;4993373;28;20018;-82
2023/05/01 00:49:08;;;;;;;8.47;5.00;;;8.50;99.90;;;;;;4991657;28;20798;-82
2023/05/01 00:51:34;;;;;;;6.83;4.70;;;8.40;99.90;;;;;;4992601;28;20045;-81
2023/05/01 00:54:01;;;;;;;6.67;4.90;;;8.40;99.90;;;;;;4993012;28;20030;-82
2023/05/01 00:56:27;;;;;;;7.37;5.50;;;8.40;99.90;;;;;;4992684;28;20054;-82
2023/05/01 00:58:53;;;;;;;7.03;4.53;;;8.40;99.90;;;;;;4993221;28;20088;-82
2023/05/01 01:01:22;;;;;;;7.30;5.07;;;8.30;99.90;;;;;;4992197;28;20034;-81
2023/05/01 01:03:50;;;;;;;8.00;5.17;;;8.30;99.90;;;;;;4993329;28;20045;-82
2023/05/01 01:06:32;;;;;;;9.67;5.50;;;8.30;99.90;;;;;;4993186;28;20129;-82
2023/05/01 01:09:10;;;;;;;8.23;5.47;;;8.20;99.90;;;;;;4992534;28;20026;-81
2023/05/01 01:12:08;;;;;;;7.40;5.47;;;8.20;99.90;;;;;;4992913;28;20030;-82
2023/05/01 01:15:04;;;;;;;7.90;5.17;;;8.20;99.90;;;;;;4993463;28;20037;-81
2023/05/01 01:17:34;;;;;;;;;;;8.10;99.90;;;;;;4993167;28;20062;-81
2023/05/01 01:20:18;;;;;;;8.43;5.30;;;8.10;99.90;;;;;;4991763;28;20840;-81
2023/05/01 01:22:51;;;;;;;6.40;5.00;;;8.10;99.90;;;;;;4992295;28;20031;-81
2023/05/01 01:25:32;;;;;;;6.97;4.90;;;8.00;99.90;;;;;;4991756;28;20034;-81
2023/05/01 01:28:17;;;;;;;7.30;5.20;;;8.00;99.90;;;;;;4992553;28;20038;-81
2023/05/01 01:30:42;;;;;;;7.65;5.38;;;8.00;99.90;;;;;;4991095;28;20039;-82
2023/05/01 01:33:14;;;;;;;7.13;5.40;;;7.90;99.90;;;;;;4990895;28;20026;-81
2023/05/01 01:35:45;;;;;;;6.97;5.00;;;7.90;99.90;;;;;;4992757;28;20065;-81
2023/05/01 01:38:23;;;;;;;7.67;5.33;;;7.90;99.90;;;;;;4991145;28;20110;-82
2023/05/01 01:41:08;;;;;;;7.90;5.40;;;7.80;99.90;;;;;;4989970;28;20113;-81
2023/05/01 01:43:40;;;;;;;11.38;6.15;;;7.80;99.90;;;;;;4988654;28;20054;-80
2023/05/01 01:46:09;;;;;;;7.17;5.57;;;7.80;99.90;;;;;;4988180;28;20057;-79
2023/05/01 01:48:38;;;;;;;9.07;5.83;;;7.80;99.90;;;;;;4988702;28;20468;-79
2023/05/01 01:51:11;;;;;;;6.23;5.40;;;7.70;99.90;;;;;;4988784;28;20403;-79
2023/05/01 01:53:37;;;;;;;7.77;5.90;;;7.70;99.90;;;;;;4988990;28;20026;-79
2023/05/01 01:56:05;;;;;;;7.63;6.57;;;7.60;99.90;;;;;;4989410;28;20026;-79
2023/05/01 01:58:33;;;;;;;10.33;6.43;;;7.60;99.90;;;;;;4989512;28;20081;-82
2023/05/01 02:01:00;;;;;;;7.77;5.70;;;7.60;99.90;;;;;;4990964;28;20030;-80
2023/05/01 02:03:26;;;;;;;7.87;6.00;;;7.60;99.90;;;;;;4991470;28;20106;-81
2023/05/01 02:05:55;;;;;;;8.53;6.03;;;7.50;99.90;;;;;;4991202;28;20026;-81
2023/05/01 02:08:23;;;;;;;8.20;5.80;;;7.50;99.90;;;;;;4991350;28;20034;-81
2023/05/01 02:10:49;;;;;;;7.17;5.90;;;7.50;99.90;;;;;;4999321;28;20034;-81
2023/05/01 02:13:17;;;;;;;7.43;6.23;;;7.40;99.90;;;;;;4991760;28;20037;-81
2023/05/01 02:15:44;;;;;;;9.07;6.03;;;7.40;99.90;;;;;;4991114;28;20659;-82
2023/05/01 02:18:11;;;;;;;8.13;6.00;;;7.40;99.90;;;;;;4987447;28;20077;-81
2023/05/01 02:20:37;;;;;;;7.90;6.37;;;7.40;99.90;;;;;;4990402;28;20479;-81
2023/05/01 02:23:06;;;;;;;9.03;6.47;;;7.30;99.90;;;;;;4991227;28;20061;-81
2023/05/01 02:25:36;;;;;;;7.73;6.80;;;7.30;99.90;;;;;;4991344;28;20180;-82
2023/05/01 02:28:14;;;;;;;7.10;6.03;;;7.20;99.90;;;;;;4990761;28;20371;-82
2023/05/01 02:30:40;;;;;;;8.10;6.23;;;7.20;99.90;;;;;;4989684;28;20111;-81
2023/05/01 02:33:07;;;;;;;11.40;6.37;;;7.20;99.90;;;;;;4991612;28;20057;-82
2023/05/01 02:35:48;;;;;;;11.03;5.83;;;7.20;99.90;;;;;;4990925;28;20118;-81
2023/05/01 02:38:15;;;;;;;9.40;6.47;;;7.20;99.90;;;;;;4991673;28;20041;-81
2023/05/01 02:40:45;;;;;;;8.90;6.00;;;7.10;99.90;;;;;;4989602;28;20041;-82
2023/05/01 02:43:13;;;;;;;7.03;6.33;;;7.10;99.90;;;;;;4990435;28;20117;-81
2023/05/01 02:45:40;;;;;;;8.57;6.27;;;7.10;99.90;;;;;;4991234;28;20035;-81
2023/05/01 02:48:08;;;;;;;9.40;6.37;;;7.00;99.90;;;;;;4997197;28;20037;-82
2023/05/01 02:50:36;;;;;;;8.37;6.70;;;7.00;99.90;;;;;;4996430;28;20026;-81
2023/05/01 02:53:02;;;;;;;8.03;6.37;;;7.00;99.90;;;;;;4996510;28;20165;-81
2023/05/01 02:55:28;;;;;;;6.80;5.80;;;7.00;99.90;;;;;;4995716;28;20041;-81
2023/05/01 02:57:58;;;;;;;7.63;6.40;;;6.90;99.90;;;;;;4995016;28;20038;-81
2023/05/01 03:00:24;;;;;;;8.57;6.40;;;6.90;99.90;;;;;;4997085;28;20057;-81
2023/05/01 03:02:49;;;;;;;7.50;6.60;;;6.90;99.90;;;;;;4996369;28;20367;-82
2023/05/01 03:05:15;;;;;;;7.83;6.53;;;6.90;99.90;;;;;;4997383;28;20041;-81
2023/05/01 03:07:40;;;;;;;9.63;6.63;;;6.80;99.90;;;;;;4996113;28;20026;-81
2023/05/01 03:10:07;;;;;;;10.70;6.47;;;6.80;99.90;;;;;;4995655;28;20030;-81
2023/05/01 03:12:32;;;;;;;9.83;6.43;;;6.80;99.90;;;;;;4994639;28;20030;-81
2023/05/01 03:14:58;;;;;;;11.10;6.97;;;6.70;99.90;;;;;;4994189;28;20506;-81
2023/05/01 03:17:24;;;;;;;8.87;6.90;;;6.70;99.90;;;;;;4994607;28;20121;-81
2023/05/01 03:19:50;;;;;;;11.20;6.93;;;6.70;99.90;;;;;;4993175;28;20034;-81
2023/05/01 03:22:16;;;;;;;7.83;6.57;;;6.70;99.90;;;;;;4993633;28;20045;-82
2023/05/01 03:24:41;;;;;;;9.10;7.10;;;6.60;99.90;;;;;;4993757;28;20502;-81
2023/05/01 03:27:07;;;;;;;12.23;7.10;;;6.60;99.90;;;;;;4993374;28;20651;-81
2023/05/01 03:29:33;;;;;;;12.43;8.20;;;6.60;99.90;;;;;;4992624;28;20049;-81
2023/05/01 03:31:59;;;;;;;10.93;8.07;;;6.60;99.90;;;;;;4993303;28;20045;-81
2023/05/01 03:34:26;;;;;;;10.63;7.90;;;6.60;99.90;;;;;;4994921;28;20026;-81
2023/05/01 03:36:53;;;;;;;10.47;7.53;;;6.60;99.90;;;;;;4993104;28;20018;-82
2023/05/01 03:39:18;;;;;;;12.13;7.53;;;6.60;99.90;;;;;;4993546;28;20042;-81
2023/05/01 03:41:44;;;;;;;10.90;7.77;;;6.60;99.90;;;;;;4992971;28;20031;-82
2023/05/01 03:44:09;;;;;;;9.40;7.50;;;6.60;99.90;;;;;;4993925;28;20041;-81
2023/05/01 03:46:35;;;;;;;10.23;7.30;;;6.60;99.90;;;;;;4993699;28;20124;-81
2023/05/01 03:49:00;;;;;;;8.07;6.80;;;6.50;99.90;;;;;;4999707;28;20062;-81
2023/05/01 03:51:26;;;;;;;11.20;7.47;;;6.50;99.90;;;;;;4992416;28;20038;-82
2023/05/01 03:53:52;;;;;;;9.80;7.40;;;6.50;99.90;;;;;;4991469;28;20034;-82
2023/05/01 03:56:17;;;;;;;11.00;7.00;;;6.50;99.90;;;;;;4991305;28;20120;-82
2023/05/01 03:58:43;;;;;;;8.70;7.27;;;6.50;99.90;;;;;;4991457;28;20044;-81
2023/05/01 04:01:08;;;;;;;10.57;7.83;;;6.50;99.90;;;;;;4990700;28;20038;-81
2023/05/01 04:03:34;;;;;;;11.07;7.83;;;6.50;99.90;;;;;;4991496;28;20133;-81
2023/05/01 04:06:00;;;;;;;9.83;6.97;;;6.50;99.90;;;;;;4992605;28;20033;-81
2023/05/01 04:08:25;;;;;;;9.23;7.00;;;6.50;99.90;;;;;;4993517;28;20030;-82
2023/05/01 04:10:51;;;;;;;10.00;7.33;;;6.60;99.90;;;;;;4992074;28;20041;-81
2023/05/01 04:13:16;;;;;;;14.03;7.10;;;6.50;99.90;;;;;;4993468;28;20497;-82
2023/05/01 04:15:45;;;;;;;9.93;8.00;;;6.50;99.90;;;;;;4993516;28;20026;-81
2023/05/01 04:18:11;;;;;;;11.40;7.23;;;6.50;99.90;;;;;;4992636;28;20078;-81
2023/05/01 04:20:37;;;;;;;10.87;7.40;;;6.50;99.90;;;;;;4993158;28;20172;-81
2023/05/01 04:23:02;;;;;;;11.83;8.30;;;6.50;99.90;;;;;;4995395;28;20550;-81
2023/05/01 04:25:28;;;;;;;8.97;7.60;;;6.50;99.90;;;;;;4995490;28;20965;-81
2023/05/01 04:27:53;;;;;;;9.10;7.40;;;6.50;99.90;;;;;;4994258;28;20034;-81
2023/05/01 04:30:19;;;;;;;9.73;7.97;;;6.60;99.90;;;;;;4993831;28;20026;-81
2023/05/01 04:32:45;;;;;;;9.60;7.57;;;6.60;99.90;;;;;;4993670;28;20167;-82
2023/05/01 04:35:11;;;;;;;8.67;7.17;;;6.60;99.90;;;;;;4991837;28;20030;-81
2023/05/01 04:37:36;;;;;;;10.90;7.93;;;6.70;99.90;;;;;;4993541;28;20065;-81
2023/05/01 04:40:02;;;;;;;14.00;7.93;;;6.70;99.90;;;;;;4992812;28;20049;-81
2023/05/01 04:42:31;;;;;;;12.30;7.20;;;6.70;99.90;;;;;;4992778;28;20026;-81
2023/05/01 04:45:00;;;;;;;11.37;7.47;;;6.70;99.90;;;;;;4993929;28;20040;-81
2023/05/01 04:47:26;;;;;;;9.67;7.27;;;6.80;99.90;;;;;;4991916;28;20038;-79
2023/05/01 04:49:52;;;;;;;14.43;7.77;;;6.80;99.90;;;;;;4990168;28;20049;-81
2023/05/01 04:52:17;;;;;;;10.73;8.17;;;6.80;99.90;;;;;;4991976;28;20482;-81
2023/05/01 04:54:43;;;;;;;14.17;7.83;;;6.90;99.90;;;;;;4991440;28;20479;-81
2023/05/01 04:57:08;;;;;;;9.10;7.63;;;6.90;99.90;;;;;;4991847;28;20038;-80
2023/05/01 04:59:34;;;;;;;9.63;7.93;;;7.00;99.90;;;;;;4990521;28;20470;-80
2023/05/01 05:01:59;;;;;;;12.23;8.13;;;7.00;99.90;;;;;;4991847;28;20037;-81
2023/05/01 05:04:25;;;;;;;11.07;8.00;;;7.10;99.90;;;;;;4992553;28;20041;-81
2023/05/01 05:06:50;;;;;;;9.63;7.53;;;7.10;99.90;;;;;;4991824;28;20030;-81
2023/05/01 05:09:16;;;;;;;7.83;7.03;;;7.20;99.90;;;;;;4990733;28;20085;-81
2023/05/01 05:11:42;;;;;;;13.33;7.67;;;7.30;99.90;;;;;;4992130;28;20078;-81
2023/05/01 05:14:08;;;;;;;9.27;7.37;;;7.40;99.90;;;;;;4989291;28;20057;-81
2023/05/01 05:16:34;;;;;;;10.23;7.13;;;7.50;99.90;;;;;;4991573;28;21600;-81
2023/05/01 05:18:59;;;;;;;8.27;6.93;;;7.60;99.90;;;;;;4990773;28;20038;-80
2023/05/01 05:21:25;;;;;;;10.67;8.10;;;7.60;99.90;;;;;;4992091;28;20023;-80
2023/05/01 05:23:51;;;;;;;9.67;7.80;;;7.70;99.90;;;;;;4988963;28;20129;-82
2023/05/01 05:26:16;;;;;;;9.90;8.00;;;7.80;99.90;;;;;;4995327;28;20029;-80
2023/05/01 05:28:42;;;;;;;9.60;7.37;;;7.90;99.90;;;;;;4991368;28;20582;-80
2023/05/01 05:31:08;;;;;;;8.70;7.07;;;8.00;99.90;;;;;;4988185;28;20062;-80
2023/05/01 05:33:33;;;;;;;9.30;7.33;;;8.10;99.90;;;;;;4990205;28;20113;-80
2023/05/01 05:35:59;;;;;;;10.97;7.97;;;8.20;99.90;;;;;;4987358;28;20034;-80
2023/05/01 05:38:24;;;;;;;16.70;12.10;;;8.20;99.90;;;;;;4987114;28;20471;-75
2023/05/01 05:40:50;;;;;;;20.00;11.37;;;8.30;99.90;;;;;;4988178;28;20025;-80
2023/05/01 05:43:15;;;;;;;17.07;12.70;;;8.30;99.90;;;;;;4991062;28;20022;-81
2023/05/01 05:45:41;;;;;;;20.53;13.53;;;8.40;99.90;;;;;;4991534;28;20073;-82
2023/05/01 05:48:06;;;;;;;23.00;18.43;;;8.50;99.90;;;;;;4989066;28;20042;-84
2023/05/01 05:50:32;;;;;;;23.90;19.37;;;8.60;99.90;;;;;;4986434;28;20521;-84
2023/05/01 05:52:58;;;;;;;37.73;27.40;;;8.60;99.90;;;;;;4986408;28;20963;-85
2023/05/01 05:55:23;;;;;;;11.93;9.00;;;8.60;99.90;;;;;;4985575;28;20056;-84
2023/05/01 05:57:49;;;;;;;11.00;8.40;;;8.60;99.90;;;;;;4987675;28;20045;-82
2023/05/01 06:00:16;;;;;;;9.70;8.07;;;8.70;99.90;;;;;;4989078;28;20023;-82
2023/05/01 06:02:41;;;;;;;8.43;7.20;;;8.70;99.90;;;;;;4990952;28;20038;-82
2023/05/01 06:05:09;;;;;;;8.43;7.03;;;8.70;99.90;;;;;;4989941;28;20025;-82
2023/05/01 06:07:34;;;;;;;9.17;7.20;;;8.80;99.90;;;;;;4989382;28;20030;-82
2023/05/01 06:10:03;;;;;;;10.10;8.13;;;8.90;99.90;;;;;;4989981;28;20030;-82
2023/05/01 06:12:30;;;;;;;9.93;7.93;;;9.00;99.90;;;;;;4988742;28;20113;-82
2023/05/01 06:14:56;;;;;;;12.13;7.80;;;9.10;99.90;;;;;;4988040;28;20711;-82
2023/05/01 06:17:23;;;;;;;9.07;7.57;;;9.20;99.90;;;;;;4988860;28;20803;-84
2023/05/01 06:19:51;;;;;;;9.93;7.27;;;9.30;99.90;;;;;;4985046;28;20034;-83
2023/05/01 06:22:17;;;;;;;10.57;7.93;;;9.30;99.90;;;;;;4987843;28;20301;-82
2023/05/01 06:24:43;;;;;;;11.07;9.47;;;9.40;99.90;;;;;;4986379;28;20030;-82
2023/05/01 06:27:08;;;;;;;10.20;8.00;;;9.50;99.90;;;;;;4982891;28;20360;-88
2023/05/01 06:29:34;;;;;;;10.50;7.90;;;9.60;99.90;;;;;;4982242;28;20042;-88
2023/05/01 06:32:00;;;;;;;8.27;7.47;;;9.70;99.90;;;;;;4984202;28;20022;-85
2023/05/01 06:34:25;;;;;;;9.80;7.77;;;9.70;99.90;;;;;;4987343;28;20031;-82
2023/05/01 06:36:53;;;;;;;11.43;7.27;;;9.80;99.90;;;;;;4982844;28;20026;-91
2023/05/01 06:39:19;;;;;;;25.03;15.33;;;9.90;99.90;;;;;;4984790;28;20133;-91
2023/05/01 06:41:46;;;;;;;13.40;8.87;;;10.00;99.90;;;;;;4984296;28;20039;-91
2023/05/01 06:44:11;;;;;;;8.57;7.13;;;10.00;99.90;;;;;;4983090;28;20037;-91
2023/05/01 06:46:37;;;;;;;11.37;6.70;;;10.10;99.90;;;;;;4987102;28;20030;-91
2023/05/01 06:49:03;;;;;;;8.10;6.57;;;10.20;99.90;;;;;;4983794;28;20124;-91
2023/05/01 06:51:30;;;;;;;11.57;6.63;;;10.30;99.90;;;;;;4984949;28;20069;-90
2023/05/01 06:53:56;;;;;;;8.23;7.03;;;10.40;99.90;;;;;;4986297;28;20360;-91
2023/05/01 06:56:21;;;;;;;12.10;6.53;;;10.40;99.90;;;;;;4985014;28;20038;-90
2023/05/01 06:58:47;;;;;;;12.07;6.83;;;10.50;99.90;;;;;;4985497;28;20042;-91
2023/05/01 07:01:13;;;;;;;10.63;6.20;;;10.50;99.90;;;;;;4985699;28;20116;-91
2023/05/01 07:03:38;;;;;;;9.20;6.37;;;10.60;99.90;;;;;;4987657;28;20088;-90
2023/05/01 07:06:04;;;;;;;7.20;6.13;;;10.70;99.90;;;;;;4988229;28;20041;-90
2023/05/01 07:08:29;;;;;;;9.43;6.10;;;10.80;99.90;;;;;;4986231;28;20073;-91
2023/05/01 07:11:01;;;;;;;7.13;6.00;;;10.90;99.90;;;;;;4989008;28;20030;-91
2023/05/01 07:13:27;;;;;;;11.87;6.17;;;10.90;99.90;;;;;;4993467;28;20038;-92
2023/05/01 07:15:53;;;;;;;6.77;5.77;;;11.00;99.90;;;;;;4992169;28;20675;-91
2023/05/01 07:18:19;;;;;;;6.07;5.37;;;11.10;99.90;;;;;;4987986;28;20714;-91
2023/05/01 07:20:44;;;;;;;9.00;6.50;;;11.10;99.90;;;;;;4982646;28;20038;-90
2023/05/01 07:23:10;;;;;;;8.17;6.10;;;11.20;99.90;;;;;;4984587;28;20026;-91
2023/05/01 07:25:36;;;;;;;8.10;5.63;;;11.20;99.90;;;;;;4986475;28;20044;-90
2023/05/01 07:28:04;;;;;;;8.85;6.20;;;11.30;99.90;;;;;;4982183;28;20041;-90
2023/05/01 07:30:29;;;;;;;8.88;5.82;;;11.30;99.90;;;;;;4986535;28;20372;-90
2023/05/01 07:33:01;;;;;;;6.93;6.10;;;11.30;99.90;;;;;;4987658;28;20116;-90
2023/05/01 07:35:26;;;;;;;8.00;6.32;;;11.20;99.90;;;;;;4989452;28;20042;-90
2023/05/01 07:37:52;;;;;;;8.32;6.10;;;11.20;99.90;;;;;;4988806;28;20054;-90
2023/05/01 07:40:18;;;;;;;7.53;6.22;;;11.20;99.90;;;;;;4991805;28;20039;-90
2023/05/01 07:42:43;;;;;;;7.97;6.05;;;11.20;99.90;;;;;;4988655;28;20378;-90
2023/05/01 07:45:12;;;;;;;8.40;6.57;;;11.20;99.90;;;;;;4995193;28;20112;-90
2023/05/01 07:47:37;;;;;;;8.35;6.40;;;11.20;99.90;;;;;;4991800;28;20022;-88
2023/05/01 07:50:03;;;;;;;8.95;7.03;;;11.40;99.90;;;;;;4990770;28;20034;-90
2023/05/01 07:52:29;;;;;;;10.15;6.30;;;11.40;99.90;;;;;;4990000;28;20066;-91
2023/05/01 07:54:55;;;;;;;9.80;7.00;;;11.40;99.90;;;;;;4989077;28;20134;-90
2023/05/01 07:57:22;;;;;;;7.65;6.80;;;11.30;99.90;;;;;;4989594;28;20034;-91
2023/05/01 07:59:52;;;;;;;16.87;7.70;;;11.20;99.90;;;;;;4988265;28;20044;-91
2023/05/01 08:02:20;;;;;;;10.65;6.65;;;11.20;99.90;;;;;;4988414;28;20037;-91
2023/05/01 08:04:47;;;;;;;10.25;6.00;;;11.20;99.90;;;;;;4987046;28;21047;-84
2023/05/01 08:07:12;;;;;;;8.75;6.38;;;11.30;99.90;;;;;;4989726;28;20109;-84
2023/05/01 08:09:38;;;;;;;7.68;6.25;;;11.30;99.90;;;;;;4989174;28;20747;-84
2023/05/01 08:12:04;;;;;;;10.40;6.32;;;11.40;99.90;;;;;;4990788;28;20097;-84
2023/05/01 08:14:30;;;;;;;7.32;6.53;;;11.40;99.90;;;;;;4990053;28;20089;-87
2023/05/01 08:16:55;;;;;;;10.50;6.15;;;11.50;99.90;;;;;;4984611;28;20026;-87
2023/05/01 08:19:24;;;;;;;7.85;7.05;;;11.40;99.90;;;;;;4984386;28;20038;-88
2023/05/01 08:21:49;;;;;;;12.63;6.97;;;11.50;99.90;;;;;;4984951;28;20034;-85
2023/05/01 08:24:17;;;;;;;10.60;7.15;;;11.40;99.90;;;;;;4992318;28;20077;-84
2023/05/01 08:26:42;;;;;;;9.17;7.43;;;11.30;99.90;;;;;;4990862;28;20045;-85
2023/05/01 08:29:11;;;;;;;7.57;6.47;;;11.30;99.90;;;;;;4990710;28;21131;-85
2023/05/01 08:31:38;;;;;;;8.30;6.25;;;11.30;99.90;;;;;;4989669;28;20151;-84
2023/05/01 08:34:04;;;;;;;8.82;7.03;;;11.30;99.90;;;;;;4989709;28;20077;-85
2023/05/01 08:36:31;;;;;;;9.50;6.30;;;11.30;99.90;;;;;;4989538;28;20406;-87
2023/05/01 08:38:57;;;;;;;7.38;6.32;;;11.20;99.90;;;;;;4993941;28;20057;-80
2023/05/01 08:41:23;;;;;;;7.82;6.40;;;11.20;99.90;;;;;;4995579;28;20022;-79
2023/05/01 08:43:49;;;;;;;9.55;6.38;;;11.20;99.90;;;;;;4991387;28;20030;-82
2023/05/01 08:46:24;;;;;;;8.07;6.53;;;11.10;99.90;;;;;;4991262;28;20019;-82
2023/05/01 08:48:52;;;;;;;11.98;7.97;;;11.10;99.90;;;;;;4992815;28;20045;-83
2023/05/01 08:51:19;;;;;;;9.23;7.20;;;11.00;99.90;;;;;;4989566;28;20038;-82
2023/05/01 08:53:46;;;;;;;8.83;6.90;;;10.90;99.90;;;;;;4986680;28;20159;-81
2023/05/01 08:56:12;;;;;;;13.00;7.15;;;10.90;99.90;;;;;;4992591;28;20026;-81
2023/05/01 08:58:39;;;;;;;8.73;7.27;;;10.80;99.90;;;;;;4991890;28;20510;-82
2023/05/01 09:01:06;;;;;;;9.43;7.03;;;10.80;99.90;;;;;;4990880;28;20080;-83
2023/05/01 09:03:32;;;;;;;9.88;7.38;;;10.70;99.90;;;;;;4991394;28;20054;-83
2023/05/01 09:06:01;;;;;;;9.63;7.63;;;10.60;99.90;;;;;;4988250;28;20467;-80
2023/05/01 09:08:26;;;;;;;9.67;7.90;;;10.60;99.90;;;;;;4986961;28;20032;-79
2023/05/01 09:10:55;;;;;;;8.70;7.77;;;10.60;99.90;;;;;;4985209;28;20049;-82
2023/05/01 09:13:20;;;;;;;9.60;7.53;;;10.60;99.90;;;;;;4987976;28;20038;-80
2023/05/01 09:15:46;;;;;;;12.37;8.07;;;10.50;99.90;;;;;;4991245;28;20034;-80
2023/05/01 09:18:11;;;;;;;10.43;8.73;;;10.30;99.90;;;;;;4988649;28;20045;-81
2023/05/01 09:20:37;;;;;;;11.60;8.67;;;10.30;99.90;;;;;;4988310;28;20117;-80
2023/05/01 09:23:03;;;;;;;11.33;9.20;;;10.20;99.90;;;;;;4989340;28;20030;-80
2023/05/01 09:25:30;;;;;;;10.77;8.43;;;10.20;99.90;;;;;;4988856;28;20030;-80
2023/05/01 09:27:56;;;;;;;10.30;8.23;;;10.20;99.90;;;;;;4988931;28;20061;-80
2023/05/01 09:30:36;;;;;;;10.30;7.97;;;10.20;99.90;;;;;;4987731;28;20121;-80
2023/05/01 09:33:04;;;;;;;12.00;8.53;;;10.20;99.90;;;;;;4985318;28;20494;-80
2023/05/01 09:35:31;;;;;;;12.70;8.10;;;10.10;99.90;;;;;;4983801;28;20435;-80
2023/05/01 09:37:57;;;;;;;14.07;8.90;;;10.10;99.90;;;;;;4980899;28;20105;-81
2023/05/01 09:40:26;;;;;;;12.43;8.33;;;10.10;99.90;;;;;;4986124;28;20830;-81
2023/05/01 09:42:56;;;;;;;11.67;9.27;;;10.10;99.90;;;;;;4986332;28;20797;-81
2023/05/01 09:45:22;;;;;;;13.07;9.77;;;10.20;99.90;;;;;;4983780;28;20030;-82
2023/05/01 09:47:48;;;;;;;13.63;8.87;;;10.10;99.90;;;;;;4985341;28;20030;-82
2023/05/01 09:50:33;;;;;;;12.83;9.20;;;10.20;99.90;;;;;;4984956;28;20034;-82
2023/05/01 09:53:05;;;;;;;10.88;9.15;;;10.10;99.90;;;;;;4986881;28;20042;-82
2023/05/01 09:55:31;;;;;;;13.27;9.30;;;10.10;99.90;;;;;;4985460;28;20037;-82
2023/05/01 09:58:00;;;;;;;12.40;9.80;;;10.10;99.90;;;;;;4986572;28;20034;-84
2023/05/01 10:00:26;;;;;;;11.13;9.00;;;10.10;99.90;;;;;;4983991;28;20218;-84
2023/05/01 10:02:52;;;;;;;13.97;10.33;;;10.10;99.90;;;;;;4986462;28;20026;-82
2023/05/01 10:05:18;;;;;;;13.10;10.67;;;10.10;99.90;;;;;;4984647;28;20040;-83
2023/05/01 10:08:02;;;;;;;12.60;10.27;;;10.10;99.90;;;;;;4985666;28;20035;-83
2023/05/01 10:10:28;;;;;;;12.80;10.87;;;10.10;99.90;;;;;;4984354;28;20036;-83
2023/05/01 10:12:54;;;;;;;15.93;10.73;;;10.10;99.90;;;;;;4984559;28;20030;-84
2023/05/01 10:15:19;;;;;;;10.97;9.80;;;10.10;99.90;;;;;;4984630;28;20070;-83
2023/05/01 10:17:50;;;;;;;12.93;10.80;;;10.20;99.90;;;;;;4984276;28;20136;-83
2023/05/01 10:20:16;;;;;;;11.87;10.50;;;10.30;99.90;;;;;;4988025;28;20040;-84
2023/05/01 10:22:41;;;;;;;12.67;10.80;;;10.30;99.90;;;;;;4994159;28;21304;-86
2023/05/01 10:25:09;;;;;;;13.47;10.57;;;10.30;99.90;;;;;;4983241;28;20026;-85
2023/05/01 10:27:36;;;;;;;14.23;10.33;;;10.40;99.90;;;;;;4985301;28;20076;-84
2023/05/01 10:30:04;;;;;;;12.07;10.40;;;10.40;99.90;;;;;;4982701;28;20117;-85
2023/05/01 10:32:31;;;;;;;14.63;11.60;;;10.40;99.90;;;;;;4982033;28;20039;-84
2023/05/01 10:35:04;;;;;;;12.77;11.40;;;10.40;99.90;;;;;;4980588;28;20117;-85
2023/05/01 10:37:57;;;;;;;15.50;11.30;;;10.50;99.90;;;;;;4982150;28;20050;-83
2023/05/01 10:40:38;;;;;;;13.97;11.47;;;10.50;99.90;;;;;;4983836;28;20030;-84
2023/05/01 10:43:25;;;;;;;14.67;11.80;;;10.60;99.90;;;;;;4986248;28;20030;-84
2023/05/01 10:45:51;;;;;;;14.07;12.57;;;10.60;99.90;;;;;;4983647;28;20037;-85
2023/05/01 10:48:39;;;;;;;15.13;12.40;;;10.70;99.90;;;;;;4984406;28;20033;-85
2023/05/01 10:51:11;;;;;;;14.30;11.47;;;10.80;99.90;;;;;;4983575;28;20036;-84
2023/05/01 10:53:38;;;;;;;13.97;11.77;;;10.80;99.90;;;;;;4986426;28;20037;-84
2023/05/01 10:56:04;;;;;;;16.93;12.70;;;10.80;99.90;;;;;;4985002;28;20038;-85
2023/05/01 10:58:37;;;;;;;13.40;11.70;;;10.80;99.90;;;;;;4984864;28;20074;-84
2023/05/01 11:01:35;;;;;;;14.10;11.55;;;10.90;99.90;;;;;;4983980;28;20038;-84
2023/05/01 11:04:26;;;;;;;15.87;12.33;;;10.80;99.90;;;;;;4985010;28;20623;-84
2023/05/01 11:07:06;;;;;;;15.40;13.07;;;10.80;99.90;;;;;;4987870;28;20026;-83
2023/05/01 11:09:40;;;;;;;14.50;12.43;;;10.80;99.90;;;;;;4989714;28;20048;-84
2023/05/01 11:12:07;;;;;;;15.93;13.37;;;10.90;99.90;;;;;;4988112;28;20034;-81
2023/05/01 11:14:56;;;;;;;17.50;13.75;;;10.90;99.90;;;;;;4989094;28;20030;-82
2023/05/01 11:17:39;;;;;;;17.07;12.63;;;11.00;99.90;;;;;;4989871;28;20168;-83
2023/05/01 11:20:23;;;;;;;15.13;13.23;;;11.00;99.90;;;;;;4988918;28;20443;-83
2023/05/01 11:22:54;;;;;;;16.85;13.15;;;11.10;99.90;;;;;;4989076;28;20108;-85
2023/05/01 11:25:21;;;;;;;14.38;12.88;;;11.20;99.90;;;;;;4989347;28;20072;-83
2023/05/01 11:27:52;;;;;;;14.85;13.10;;;11.20;99.90;;;;;;4986679;28;20179;-83
2023/05/01 11:30:18;;;;;;;14.70;13.20;;;11.20;99.90;;;;;;4988725;28;20034;-84
2023/05/01 11:32:45;;;;;;;14.95;12.88;;;11.20;99.90;;;;;;4991267;28;21381;-84
2023/05/01 11:35:22;;;;;;;15.60;12.37;;;11.20;99.90;;;;;;4991753;28;20038;-84
2023/05/01 11:37:49;;;;;;;14.40;12.90;;;11.20;99.90;;;;;;4991999;28;20041;-84
2023/05/01 11:40:22;;;;;;;14.98;12.85;;;11.20;99.90;;;;;;4989287;28;20062;-83
2023/05/01 11:42:48;;;;;;;13.55;12.13;;;11.20;99.90;;;;;;4990641;28;20034;-84
2023/05/01 11:45:14;;;;;;;15.20;13.60;;;11.20;99.90;;;;;;4991219;28;20050;-83
2023/05/01 11:47:40;;;;;;;14.43;12.93;;;11.20;99.90;;;;;;4991450;28;20060;-83
2023/05/01 11:50:07;;;;;;;17.20;13.00;;;11.20;99.90;;;;;;4990978;28;20398;-84
2023/05/01 11:52:47;;;;;;;14.80;12.57;;;11.30;99.90;;;;;;4991742;28;20026;-82
2023/05/01 11:55:13;;;;;;;15.35;13.30;;;11.30;99.90;;;;;;4993138;28;20026;-84
2023/05/01 11:57:44;;;;;;;16.77;12.77;;;11.30;99.90;;;;;;4991642;28;20034;-84
2023/05/01 12:00:11;;;;;;;14.68;13.18;;;11.40;99.90;;;;;;4991709;28;20038;-84
2023/05/01 12:02:37;;;;;;;15.88;12.70;;;11.40;99.90;;;;;;4992112;28;20105;-82
2023/05/01 12:05:16;;;;;;;14.82;12.57;;;11.50;99.90;;;;;;4991415;28;20117;-83
2023/05/01 12:07:41;;;;;;;14.15;12.23;;;11.60;99.90;;;;;;4992506;28;20405;-83
2023/05/01 12:10:08;;;;;;;14.10;12.50;;;11.60;99.90;;;;;;4991717;28;20026;-82
2023/05/01 12:12:33;;;;;;;14.48;12.98;;;11.70;99.90;;;;;;4992075;28;20126;-83
2023/05/01 12:14:59;;;;;;;13.60;12.05;;;11.80;99.90;;;;;;4992727;28;20186;-81
2023/05/01 12:17:28;;;;;;;14.18;12.63;;;11.80;99.90;;;;;;4989391;28;20038;-84
2023/05/01 12:19:54;;;;;;;14.93;12.10;;;11.80;99.90;;;;;;4987275;28;20100;-84
2023/05/01 12:22:20;;;;;;;15.07;12.30;;;11.80;99.90;;;;;;4990770;28;20035;-83
2023/05/01 12:24:52;;;;;;;14.57;13.07;;;11.80;99.90;;;;;;4991602;28;20097;-84
2023/05/01 12:27:19;;;;;;;15.65;12.43;;;11.90;99.90;;;;;;4990972;28;20094;-84
2023/05/01 12:29:46;;;;;;;12.85;11.55;;;11.90;99.90;;;;;;4989898;28;20042;-85
2023/05/01 12:32:12;;;;;;;14.48;12.32;;;12.00;99.90;;;;;;4988358;28;20038;-86
2023/05/01 12:34:39;;;;;;;13.60;12.20;;;11.90;99.90;;;;;;4988129;28;20030;-86
2023/05/01 12:37:05;;;;;;;13.45;12.00;;;11.90;99.90;;;;;;4988338;28;20038;-85
2023/05/01 12:39:43;;;;;;;17.33;12.77;;;11.90;99.90;;;;;;4988379;28;20467;-85
2023/05/01 12:42:13;;;;;;;14.45;12.93;;;12.00;99.90;;;;;;4988903;28;20114;-86
2023/05/01 12:44:39;;;;;;;14.30;12.77;;;12.00;99.90;;;;;;4987727;28;20034;-86
2023/05/01 12:47:07;;;;;;;15.13;13.45;;;12.00;99.90;;;;;;4992452;28;20787;-85
2023/05/01 12:49:35;;;;;;;16.75;12.95;;;12.00;99.90;;;;;;4990400;28;20034;-85